Data Viewer
| City | State | Eastern Time | Source | 1 Hour Temp Max | 1 Hour Temp Min | 1 Hour Dew Point Max | 1 Hour Dew Point Min | 1 Hour RH Max | 1 Hour RH Min | 1 Hour BP Max | 1 Hour BP Min | 1 Hour Precip | 1 Hour Wind Max | 1 Hour Wind Max Dir |
|---|---|---|---|---|---|---|---|---|---|---|---|---|---|---|
| Sicklerville | NJ | 2026-05-05 11:00 | Mesonet | 78 | 73 | 56 | 52 | 51 | 42 | 29.88 | 29.86 | 0.00 | 11 | SW |
| Sicklerville | NJ | 2026-05-06 00:00 | Mesonet | 67 | 66 | 58 | 57 | 73 | 70 | 29.85 | 29.84 | 0.00 | 13 | SSW |
| Sicklerville | NJ | 2026-05-06 09:00 | Mesonet | 71 | 67 | 57 | 55 | 69 | 58 | 29.83 | 29.81 | 0.00 | 16 | SSE |
| Sicklerville | NJ | 2026-05-06 08:00 | Mesonet | 68 | 65 | 57 | 56 | 73 | 67 | 29.83 | 29.81 | 0.00 | 16 | SW |
| Sicklerville | NJ | 2026-05-06 07:00 | Mesonet | 65 | 62 | 56 | 55 | 78 | 73 | 29.83 | 29.81 | 0.00 | 11 | SSW |
| Sicklerville | NJ | 2026-05-06 06:00 | Mesonet | 64 | 63 | 57 | 56 | 79 | 78 | 29.82 | 29.81 | 0.00 | 16 | WSW |
| Sicklerville | NJ | 2026-05-06 05:00 | Mesonet | 64 | 63 | 57 | 57 | 80 | 78 | 29.83 | 29.82 | 0.00 | 12 | SW |
| Sicklerville | NJ | 2026-05-06 04:00 | Mesonet | 65 | 64 | 58 | 57 | 80 | 77 | 29.83 | 29.82 | 0.00 | 11 | SW |
| Sicklerville | NJ | 2026-05-06 03:00 | Mesonet | 66 | 65 | 58 | 57 | 78 | 75 | 29.83 | 29.82 | 0.00 | 12 | S |
| Sicklerville | NJ | 2026-05-06 02:00 | Mesonet | 66 | 65 | 58 | 58 | 77 | 75 | 29.85 | 29.83 | 0.00 | 12 | S |
| Sicklerville | NJ | 2026-05-06 01:00 | Mesonet | 67 | 66 | 58 | 57 | 75 | 73 | 29.86 | 29.84 | 0.00 | 12 | WSW |
| Sicklerville | NJ | 2026-05-05 23:00 | Mesonet | 69 | 67 | 57 | 56 | 71 | 64 | 29.86 | 29.84 | 0.00 | 12 | WSW |
| Sicklerville | NJ | 2026-05-05 12:00 | Mesonet | 82 | 78 | 58 | 53 | 47 | 39 | 29.87 | 29.86 | 0.00 | 11 | WSW |
| Sicklerville | NJ | 2026-05-05 22:00 | Mesonet | 70 | 68 | 56 | 55 | 64 | 59 | 29.85 | 29.83 | 0.00 | 15 | SE |
| Sicklerville | NJ | 2026-05-05 21:00 | Mesonet | 71 | 70 | 56 | 55 | 60 | 58 | 29.84 | 29.82 | 0.00 | 10 | SW |
| Sicklerville | NJ | 2026-05-05 20:00 | Mesonet | 76 | 71 | 56 | 53 | 58 | 45 | 29.83 | 29.80 | 0.00 | 10 | W |
| Sicklerville | NJ | 2026-05-05 19:00 | Mesonet | 81 | 76 | 54 | 50 | 46 | 35 | 29.81 | 29.79 | 0.00 | 17 | S |
| Sicklerville | NJ | 2026-05-05 18:00 | Mesonet | 83 | 80 | 52 | 49 | 37 | 31 | 29.81 | 29.78 | 0.00 | 19 | WSW |
| Sicklerville | NJ | 2026-05-05 17:00 | Mesonet | 85 | 82 | 52 | 48 | 34 | 29 | 29.79 | 29.77 | 0.00 | 22 | WSW |
| Sicklerville | NJ | 2026-05-05 16:00 | Mesonet | 86 | 84 | 55 | 49 | 36 | 29 | 29.81 | 29.78 | 0.00 | 18 | WSW |
| Sicklerville | NJ | 2026-05-05 15:00 | Mesonet | 85 | 83 | 57 | 52 | 40 | 33 | 29.83 | 29.80 | 0.00 | 18 | WSW |
| Sicklerville | NJ | 2026-05-05 14:00 | Mesonet | 85 | 82 | 59 | 53 | 42 | 35 | 29.84 | 29.83 | 0.00 | 18 | WSW |
| Sicklerville | NJ | 2026-05-05 13:00 | Mesonet | 84 | 81 | 58 | 53 | 42 | 35 | 29.86 | 29.84 | 0.00 | 14 | WSW |
| Sicklerville | NJ | 2026-05-06 10:00 | Mesonet | WSW |
data collection created in 0.0095028877258301 (queried in 0.003756) rendered in: 5.1021575927734E-5

